sensor_id;sensor_type;location;lat;lon;timestamp;temperature;humidity
10089;DHT22;51898;49.864;8.550;2023-01-19T00:00:15;-1.50;99.90
10089;DHT22;51898;49.864;8.550;2023-01-19T00:03:18;-1.50;99.90
10089;DHT22;51898;49.864;8.550;2023-01-19T00:06:20;-1.40;99.90
10089;DHT22;51898;49.864;8.550;2023-01-19T00:09:22;-1.40;99.90
10089;DHT22;51898;49.864;8.550;2023-01-19T00:12:24;-1.50;99.90
10089;DHT22;51898;49.864;8.550;2023-01-19T00:15:26;-1.40;99.90
10089;DHT22;51898;49.864;8.550;2023-01-19T00:18:28;-1.50;99.90
10089;DHT22;51898;49.864;8.550;2023-01-19T00:21:29;-1.40;99.90
10089;DHT22;51898;49.864;8.550;2023-01-19T00:24:31;-1.40;99.90
10089;DHT22;51898;49.864;8.550;2023-01-19T00:27:33;-1.50;99.90
10089;DHT22;51898;49.864;8.550;2023-01-19T00:30:36;-1.50;99.90
10089;DHT22;51898;49.864;8.550;2023-01-19T00:33:38;-1.50;99.90
10089;DHT22;51898;49.864;8.550;2023-01-19T00:36:40;-1.40;99.90
10089;DHT22;51898;49.864;8.550;2023-01-19T00:39:42;-1.40;99.90
10089;DHT22;51898;49.864;8.550;2023-01-19T00:42:44;-1.30;99.90
10089;DHT22;51898;49.864;8.550;2023-01-19T00:45:46;-1.40;99.90
10089;DHT22;51898;49.864;8.550;2023-01-19T00:48:48;-1.40;99.90
10089;DHT22;51898;49.864;8.550;2023-01-19T00:51:49;-1.40;99.90
10089;DHT22;51898;49.864;8.550;2023-01-19T00:54:51;-1.40;99.90
10089;DHT22;51898;49.864;8.550;2023-01-19T00:57:53;-1.40;99.90
10089;DHT22;51898;49.864;8.550;2023-01-19T01:00:55;-1.40;99.90
10089;DHT22;51898;49.864;8.550;2023-01-19T01:04:04;-1.40;99.90
10089;DHT22;51898;49.864;8.550;2023-01-19T01:07:06;-1.40;99.90
10089;DHT22;51898;49.864;8.550;2023-01-19T01:10:09;-1.40;99.90
10089;DHT22;51898;49.864;8.550;2023-01-19T01:13:11;-1.40;99.90
10089;DHT22;51898;49.864;8.550;2023-01-19T01:16:24;-1.40;99.90
10089;DHT22;51898;49.864;8.550;2023-01-19T01:19:25;-1.40;99.90
10089;DHT22;51898;49.864;8.550;2023-01-19T01:22:27;-1.40;99.90
10089;DHT22;51898;49.864;8.550;2023-01-19T01:25:29;-1.40;99.90
10089;DHT22;51898;49.864;8.550;2023-01-19T01:28:31;-1.30;99.90
10089;DHT22;51898;49.864;8.550;2023-01-19T01:31:33;-1.30;99.90
10089;DHT22;51898;49.864;8.550;2023-01-19T01:34:35;-1.30;99.90
10089;DHT22;51898;49.864;8.550;2023-01-19T01:37:37;-1.30;99.90
10089;DHT22;51898;49.864;8.550;2023-01-19T01:40:39;-1.20;99.90
10089;DHT22;51898;49.864;8.550;2023-01-19T01:43:50;-1.20;99.90
10089;DHT22;51898;49.864;8.550;2023-01-19T01:47:02;-1.20;99.90
10089;DHT22;51898;49.864;8.550;2023-01-19T01:50:13;-1.20;99.90
10089;DHT22;51898;49.864;8.550;2023-01-19T01:53:16;-1.20;99.90
10089;DHT22;51898;49.864;8.550;2023-01-19T01:56:24;-1.10;99.90
10089;DHT22;51898;49.864;8.550;2023-01-19T01:59:33;-1.10;99.90
10089;DHT22;51898;49.864;8.550;2023-01-19T02:02:39;-1.10;99.90
10089;DHT22;51898;49.864;8.550;2023-01-19T02:05:59;-1.10;99.90
10089;DHT22;51898;49.864;8.550;2023-01-19T02:09:06;-1.10;99.90
10089;DHT22;51898;49.864;8.550;2023-01-19T02:12:27;-1.10;99.90
10089;DHT22;51898;49.864;8.550;2023-01-19T02:15:53;-1.10;99.90
10089;DHT22;51898;49.864;8.550;2023-01-19T02:18:56;-1.10;99.90
10089;DHT22;51898;49.864;8.550;2023-01-19T02:22:11;-1.10;99.90
10089;DHT22;51898;49.864;8.550;2023-01-19T02:25:16;-1.20;99.90
10089;DHT22;51898;49.864;8.550;2023-01-19T02:28:18;-1.10;99.90
10089;DHT22;51898;49.864;8.550;2023-01-19T02:31:20;-1.20;99.90
10089;DHT22;51898;49.864;8.550;2023-01-19T02:34:22;-1.20;99.90
10089;DHT22;51898;49.864;8.550;2023-01-19T02:37:25;-1.20;99.90
10089;DHT22;51898;49.864;8.550;2023-01-19T02:40:28;-1.20;99.90
10089;DHT22;51898;49.864;8.550;2023-01-19T02:43:31;-1.20;99.90
10089;DHT22;51898;49.864;8.550;2023-01-19T02:46:33;-1.10;99.90
10089;DHT22;51898;49.864;8.550;2023-01-19T02:49:35;-1.10;99.90
10089;DHT22;51898;49.864;8.550;2023-01-19T02:52:38;-1.10;99.90
10089;DHT22;51898;49.864;8.550;2023-01-19T02:55:40;-1.10;99.90
10089;DHT22;51898;49.864;8.550;2023-01-19T02:59:00;-1.10;99.90
10089;DHT22;51898;49.864;8.550;2023-01-19T03:06:17;-1.10;99.90
10089;DHT22;51898;49.864;8.550;2023-01-19T03:09:41;-1.00;99.90
10089;DHT22;51898;49.864;8.550;2023-01-19T03:13:00;-1.00;99.90
10089;DHT22;51898;49.864;8.550;2023-01-19T03:22:28;-0.80;99.90
10089;DHT22;51898;49.864;8.550;2023-01-19T03:25:33;-0.80;99.90
10089;DHT22;51898;49.864;8.550;2023-01-19T03:28:38;-0.80;99.90
10089;DHT22;51898;49.864;8.550;2023-01-19T03:31:43;-0.80;99.90
10089;DHT22;51898;49.864;8.550;2023-01-19T03:34:48;-0.70;99.90
10089;DHT22;51898;49.864;8.550;2023-01-19T03:37:54;-0.70;99.90
10089;DHT22;51898;49.864;8.550;2023-01-19T03:41:00;-0.70;99.90
10089;DHT22;51898;49.864;8.550;2023-01-19T03:44:05;-0.70;99.90
10089;DHT22;51898;49.864;8.550;2023-01-19T03:47:09;-0.70;99.90
10089;DHT22;51898;49.864;8.550;2023-01-19T03:50:25;-0.80;99.90
10089;DHT22;51898;49.864;8.550;2023-01-19T03:53:27;-0.70;99.90
10089;DHT22;51898;49.864;8.550;2023-01-19T03:56:29;-0.80;99.90
10089;DHT22;51898;49.864;8.550;2023-01-19T03:59:31;-0.80;99.90
10089;DHT22;51898;49.864;8.550;2023-01-19T04:02:33;-0.80;99.90
10089;DHT22;51898;49.864;8.550;2023-01-19T04:05:35;-0.90;99.90
10089;DHT22;51898;49.864;8.550;2023-01-19T04:08:38;-0.90;99.90
10089;DHT22;51898;49.864;8.550;2023-01-19T04:11:41;-1.00;99.90
10089;DHT22;51898;49.864;8.550;2023-01-19T04:14:43;-1.00;99.90
10089;DHT22;51898;49.864;8.550;2023-01-19T04:17:44;-1.00;99.90
10089;DHT22;51898;49.864;8.550;2023-01-19T04:20:46;-1.00;99.90
10089;DHT22;51898;49.864;8.550;2023-01-19T04:23:48;-1.00;99.90
10089;DHT22;51898;49.864;8.550;2023-01-19T04:26:50;-1.00;99.90
10089;DHT22;51898;49.864;8.550;2023-01-19T04:29:53;-1.00;99.90
10089;DHT22;51898;49.864;8.550;2023-01-19T04:32:57;-0.90;99.90
10089;DHT22;51898;49.864;8.550;2023-01-19T04:36:00;-0.80;99.90
10089;DHT22;51898;49.864;8.550;2023-01-19T04:39:02;-0.80;99.90
10089;DHT22;51898;49.864;8.550;2023-01-19T04:42:05;-0.70;99.90
10089;DHT22;51898;49.864;8.550;2023-01-19T04:45:07;-0.70;99.90
10089;DHT22;51898;49.864;8.550;2023-01-19T04:48:10;-0.60;99.90
10089;DHT22;51898;49.864;8.550;2023-01-19T04:51:12;-0.50;99.90
10089;DHT22;51898;49.864;8.550;2023-01-19T04:54:14;-0.50;99.90
10089;DHT22;51898;49.864;8.550;2023-01-19T04:57:15;-0.50;99.90
10089;DHT22;51898;49.864;8.550;2023-01-19T05:00:20;-0.50;99.90
10089;DHT22;51898;49.864;8.550;2023-01-19T05:03:22;-0.40;99.90
10089;DHT22;51898;49.864;8.550;2023-01-19T05:06:26;-0.30;99.90
10089;DHT22;51898;49.864;8.550;2023-01-19T05:09:28;-0.30;99.90
10089;DHT22;51898;49.864;8.550;2023-01-19T05:12:30;-0.20;99.90
10089;DHT22;51898;49.864;8.550;2023-01-19T05:15:32;-0.10;99.90
10089;DHT22;51898;49.864;8.550;2023-01-19T05:18:33;-0.10;99.90
10089;DHT22;51898;49.864;8.550;2023-01-19T05:21:37;-0.10;99.90
10089;DHT22;51898;49.864;8.550;2023-01-19T05:24:39;-0.10;99.90
10089;DHT22;51898;49.864;8.550;2023-01-19T05:27:40;-0.10;99.90
10089;DHT22;51898;49.864;8.550;2023-01-19T05:30:45;-0.10;99.90
10089;DHT22;51898;49.864;8.550;2023-01-19T05:33:47;-0.10;99.90
10089;DHT22;51898;49.864;8.550;2023-01-19T05:36:49;0.00;99.90
10089;DHT22;51898;49.864;8.550;2023-01-19T05:39:54;0.00;99.90
10089;DHT22;51898;49.864;8.550;2023-01-19T05:42:56;0.00;99.90
10089;DHT22;51898;49.864;8.550;2023-01-19T05:46:03;0.10;99.90
10089;DHT22;51898;49.864;8.550;2023-01-19T05:49:05;0.10;99.90
10089;DHT22;51898;49.864;8.550;2023-01-19T05:52:07;0.10;99.90
10089;DHT22;51898;49.864;8.550;2023-01-19T05:55:09;0.10;99.90
10089;DHT22;51898;49.864;8.550;2023-01-19T05:58:11;0.10;99.90
10089;DHT22;51898;49.864;8.550;2023-01-19T06:01:14;0.10;99.90
10089;DHT22;51898;49.864;8.550;2023-01-19T06:04:16;0.10;99.90
10089;DHT22;51898;49.864;8.550;2023-01-19T06:07:18;0.00;99.90
10089;DHT22;51898;49.864;8.550;2023-01-19T06:10:20;0.10;99.90
10089;DHT22;51898;49.864;8.550;2023-01-19T06:13:21;0.10;99.90
10089;DHT22;51898;49.864;8.550;2023-01-19T06:16:23;0.10;99.90
10089;DHT22;51898;49.864;8.550;2023-01-19T06:19:25;0.00;99.90
10089;DHT22;51898;49.864;8.550;2023-01-19T06:22:26;0.00;99.90
10089;DHT22;51898;49.864;8.550;2023-01-19T06:25:28;0.00;99.90
10089;DHT22;51898;49.864;8.550;2023-01-19T06:28:30;-0.10;99.90
10089;DHT22;51898;49.864;8.550;2023-01-19T06:31:32;0.00;99.90
10089;DHT22;51898;49.864;8.550;2023-01-19T06:34:34;0.00;99.90
10089;DHT22;51898;49.864;8.550;2023-01-19T06:37:35;0.00;99.90
10089;DHT22;51898;49.864;8.550;2023-01-19T06:40:37;0.00;99.90
10089;DHT22;51898;49.864;8.550;2023-01-19T06:43:38;0.00;99.90
10089;DHT22;51898;49.864;8.550;2023-01-19T06:46:40;0.10;99.90
10089;DHT22;51898;49.864;8.550;2023-01-19T06:49:42;0.10;99.90
10089;DHT22;51898;49.864;8.550;2023-01-19T06:52:44;0.10;99.90
10089;DHT22;51898;49.864;8.550;2023-01-19T06:55:45;0.10;99.90
10089;DHT22;51898;49.864;8.550;2023-01-19T06:58:47;0.10;99.90
10089;DHT22;51898;49.864;8.550;2023-01-19T07:01:50;0.10;99.90
10089;DHT22;51898;49.864;8.550;2023-01-19T07:04:52;0.10;99.90
10089;DHT22;51898;49.864;8.550;2023-01-19T07:07:55;0.10;99.90
10089;DHT22;51898;49.864;8.550;2023-01-19T07:11:01;0.10;99.90
10089;DHT22;51898;49.864;8.550;2023-01-19T07:14:25;0.10;99.90
10089;DHT22;51898;49.864;8.550;2023-01-19T07:17:37;0.00;99.90
10089;DHT22;51898;49.864;8.550;2023-01-19T07:20:39;0.10;99.90
10089;DHT22;51898;49.864;8.550;2023-01-19T07:23:40;0.10;99.90
10089;DHT22;51898;49.864;8.550;2023-01-19T07:26:43;0.10;99.90
10089;DHT22;51898;49.864;8.550;2023-01-19T07:29:45;0.10;99.90
10089;DHT22;51898;49.864;8.550;2023-01-19T07:32:47;0.10;99.90
10089;DHT22;51898;49.864;8.550;2023-01-19T07:35:49;0.10;99.90
10089;DHT22;51898;49.864;8.550;2023-01-19T07:38:51;0.00;99.90
10089;DHT22;51898;49.864;8.550;2023-01-19T07:41:52;0.00;99.90
10089;DHT22;51898;49.864;8.550;2023-01-19T07:44:54;0.00;99.90
10089;DHT22;51898;49.864;8.550;2023-01-19T07:47:56;0.00;99.90
10089;DHT22;51898;49.864;8.550;2023-01-19T07:51:02;0.00;99.90
10089;DHT22;51898;49.864;8.550;2023-01-19T07:54:12;-0.10;99.90
10089;DHT22;51898;49.864;8.550;2023-01-19T07:57:14;-0.10;99.90
10089;DHT22;51898;49.864;8.550;2023-01-19T08:00:17;0.00;99.90
10089;DHT22;51898;49.864;8.550;2023-01-19T08:03:22;0.00;99.90
10089;DHT22;51898;49.864;8.550;2023-01-19T08:06:31;0.00;99.90
10089;DHT22;51898;49.864;8.550;2023-01-19T08:09:33;0.00;99.90
10089;DHT22;51898;49.864;8.550;2023-01-19T08:12:35;0.10;99.90
10089;DHT22;51898;49.864;8.550;2023-01-19T08:15:36;0.20;99.90
10089;DHT22;51898;49.864;8.550;2023-01-19T08:18:38;0.30;99.90
10089;DHT22;51898;49.864;8.550;2023-01-19T08:21:40;0.30;99.90
10089;DHT22;51898;49.864;8.550;2023-01-19T08:24:42;0.30;99.90
10089;DHT22;51898;49.864;8.550;2023-01-19T08:27:44;0.40;99.90
10089;DHT22;51898;49.864;8.550;2023-01-19T08:30:46;0.30;99.90
10089;DHT22;51898;49.864;8.550;2023-01-19T08:33:54;0.30;99.90
10089;DHT22;51898;49.864;8.550;2023-01-19T08:36:56;0.30;99.90
10089;DHT22;51898;49.864;8.550;2023-01-19T08:39:58;0.40;99.90
10089;DHT22;51898;49.864;8.550;2023-01-19T08:43:02;0.40;99.90
10089;DHT22;51898;49.864;8.550;2023-01-19T08:46:06;0.50;99.90
10089;DHT22;51898;49.864;8.550;2023-01-19T08:49:07;0.50;99.90
10089;DHT22;51898;49.864;8.550;2023-01-19T08:52:09;0.50;99.90
10089;DHT22;51898;49.864;8.550;2023-01-19T08:55:11;0.50;99.90
10089;DHT22;51898;49.864;8.550;2023-01-19T08:58:12;0.50;99.90
10089;DHT22;51898;49.864;8.550;2023-01-19T09:01:14;0.50;99.90
10089;DHT22;51898;49.864;8.550;2023-01-19T09:04:17;0.50;99.90
10089;DHT22;51898;49.864;8.550;2023-01-19T09:07:19;0.60;99.90
10089;DHT22;51898;49.864;8.550;2023-01-19T09:10:20;0.70;99.90
10089;DHT22;51898;49.864;8.550;2023-01-19T09:13:22;0.80;99.90
10089;DHT22;51898;49.864;8.550;2023-01-19T09:16:24;0.90;99.90
10089;DHT22;51898;49.864;8.550;2023-01-19T09:19:27;1.00;99.90
10089;DHT22;51898;49.864;8.550;2023-01-19T09:22:29;1.10;99.90
10089;DHT22;51898;49.864;8.550;2023-01-19T09:25:31;1.20;99.90
10089;DHT22;51898;49.864;8.550;2023-01-19T09:28:33;1.40;99.90
10089;DHT22;51898;49.864;8.550;2023-01-19T09:31:35;1.40;99.90
10089;DHT22;51898;49.864;8.550;2023-01-19T09:34:40;1.50;99.90
10089;DHT22;51898;49.864;8.550;2023-01-19T09:37:45;1.50;99.90
10089;DHT22;51898;49.864;8.550;2023-01-19T09:40:51;1.60;99.90
10089;DHT22;51898;49.864;8.550;2023-01-19T09:43:56;1.80;99.90
10089;DHT22;51898;49.864;8.550;2023-01-19T09:47:00;1.90;99.90
10089;DHT22;51898;49.864;8.550;2023-01-19T09:50:04;1.90;99.90
10089;DHT22;51898;49.864;8.550;2023-01-19T09:53:19;1.90;99.90
10089;DHT22;51898;49.864;8.550;2023-01-19T09:56:22;2.00;99.90
10089;DHT22;51898;49.864;8.550;2023-01-19T09:59:29;2.10;99.90
10089;DHT22;51898;49.864;8.550;2023-01-19T10:02:34;2.20;99.90
10089;DHT22;51898;49.864;8.550;2023-01-19T10:06:02;2.30;99.90
10089;DHT22;51898;49.864;8.550;2023-01-19T10:09:23;2.40;99.90
10089;DHT22;51898;49.864;8.550;2023-01-19T10:12:48;2.50;99.90
10089;DHT22;51898;49.864;8.550;2023-01-19T10:19:22;2.60;99.90
10089;DHT22;51898;49.864;8.550;2023-01-19T10:22:27;2.70;99.90
10089;DHT22;51898;49.864;8.550;2023-01-19T10:25:29;2.60;99.90
10089;DHT22;51898;49.864;8.550;2023-01-19T10:28:31;2.70;99.90
10089;DHT22;51898;49.864;8.550;2023-01-19T10:31:36;2.70;99.90
10089;DHT22;51898;49.864;8.550;2023-01-19T10:34:39;2.80;99.90
10089;DHT22;51898;49.864;8.550;2023-01-19T10:37:42;2.80;99.90
10089;DHT22;51898;49.864;8.550;2023-01-19T10:40:53;2.80;99.90
10089;DHT22;51898;49.864;8.550;2023-01-19T10:44:01;2.80;99.90
10089;DHT22;51898;49.864;8.550;2023-01-19T10:47:14;2.80;99.90
10089;DHT22;51898;49.864;8.550;2023-01-19T10:50:26;2.80;99.90
10089;DHT22;51898;49.864;8.550;2023-01-19T10:53:28;2.70;99.90
10089;DHT22;51898;49.864;8.550;2023-01-19T10:56:33;2.80;99.90
10089;DHT22;51898;49.864;8.550;2023-01-19T11:02:50;2.80;99.90
10089;DHT22;51898;49.864;8.550;2023-01-19T11:05:52;2.80;99.90
10089;DHT22;51898;49.864;8.550;2023-01-19T11:09:18;2.70;99.90
10089;DHT22;51898;49.864;8.550;2023-01-19T11:12:22;2.70;99.90
10089;DHT22;51898;49.864;8.550;2023-01-19T11:15:31;2.60;99.90
10089;DHT22;51898;49.864;8.550;2023-01-19T11:18:36;2.60;99.90
10089;DHT22;51898;49.864;8.550;2023-01-19T11:21:38;2.50;99.90
10089;DHT22;51898;49.864;8.550;2023-01-19T11:24:39;2.50;99.90
10089;DHT22;51898;49.864;8.550;2023-01-19T11:27:49;2.50;99.90
10089;DHT22;51898;49.864;8.550;2023-01-19T11:30:56;2.50;99.90
10089;DHT22;51898;49.864;8.550;2023-01-19T11:40:17;2.60;99.90
10089;DHT22;51898;49.864;8.550;2023-01-19T11:43:21;2.60;99.90
10089;DHT22;51898;49.864;8.550;2023-01-19T11:46:28;2.60;99.90
10089;DHT22;51898;49.864;8.550;2023-01-19T11:50:00;2.70;99.90
10089;DHT22;51898;49.864;8.550;2023-01-19T11:53:17;2.70;99.90
10089;DHT22;51898;49.864;8.550;2023-01-19T11:56:25;2.60;99.90
10089;DHT22;51898;49.864;8.550;2023-01-19T11:59:27;2.60;99.90
10089;DHT22;51898;49.864;8.550;2023-01-19T12:02:43;2.70;99.90
10089;DHT22;51898;49.864;8.550;2023-01-19T12:05:49;2.70;99.90
10089;DHT22;51898;49.864;8.550;2023-01-19T12:08:55;2.70;99.90
10089;DHT22;51898;49.864;8.550;2023-01-19T12:12:09;2.60;99.90
10089;DHT22;51898;49.864;8.550;2023-01-19T12:15:31;2.50;99.90
10089;DHT22;51898;49.864;8.550;2023-01-19T12:18:39;2.40;99.90
10089;DHT22;51898;49.864;8.550;2023-01-19T12:21:43;2.40;99.90
10089;DHT22;51898;49.864;8.550;2023-01-19T12:25:12;2.30;99.90
10089;DHT22;51898;49.864;8.550;2023-01-19T12:28:15;2.30;99.90
10089;DHT22;51898;49.864;8.550;2023-01-19T12:31:21;2.30;99.90
10089;DHT22;51898;49.864;8.550;2023-01-19T12:34:28;2.30;99.90
10089;DHT22;51898;49.864;8.550;2023-01-19T12:37:41;2.30;99.90
10089;DHT22;51898;49.864;8.550;2023-01-19T12:40:44;2.30;99.90
10089;DHT22;51898;49.864;8.550;2023-01-19T12:43:47;2.40;99.90
10089;DHT22;51898;49.864;8.550;2023-01-19T12:47:19;2.40;99.90
10089;DHT22;51898;49.864;8.550;2023-01-19T12:50:22;2.50;99.90
10089;DHT22;51898;49.864;8.550;2023-01-19T12:53:26;2.60;99.90
10089;DHT22;51898;49.864;8.550;2023-01-19T12:56:33;2.50;99.90
10089;DHT22;51898;49.864;8.550;2023-01-19T12:59:37;2.60;99.90
10089;DHT22;51898;49.864;8.550;2023-01-19T13:02:44;2.60;99.90
10089;DHT22;51898;49.864;8.550;2023-01-19T13:05:52;2.60;99.90
10089;DHT22;51898;49.864;8.550;2023-01-19T13:08:56;2.70;99.90
10089;DHT22;51898;49.864;8.550;2023-01-19T13:15:33;3.00;99.90
10089;DHT22;51898;49.864;8.550;2023-01-19T13:18:39;3.00;99.90
10089;DHT22;51898;49.864;8.550;2023-01-19T13:21:46;3.00;99.90
10089;DHT22;51898;49.864;8.550;2023-01-19T13:25:11;3.00;99.90
10089;DHT22;51898;49.864;8.550;2023-01-19T13:28:15;3.00;99.90
10089;DHT22;51898;49.864;8.550;2023-01-19T13:31:17;2.90;99.90
10089;DHT22;51898;49.864;8.550;2023-01-19T13:34:25;2.90;99.90
10089;DHT22;51898;49.864;8.550;2023-01-19T13:37:45;2.90;99.90
10089;DHT22;51898;49.864;8.550;2023-01-19T13:40:47;2.80;99.90
10089;DHT22;51898;49.864;8.550;2023-01-19T13:44:06;2.80;99.90
10089;DHT22;51898;49.864;8.550;2023-01-19T13:47:15;2.80;99.90
10089;DHT22;51898;49.864;8.550;2023-01-19T13:50:21;2.80;99.90
10089;DHT22;51898;49.864;8.550;2023-01-19T13:53:24;2.70;99.90
10089;DHT22;51898;49.864;8.550;2023-01-19T13:56:26;2.70;99.90
10089;DHT22;51898;49.864;8.550;2023-01-19T13:59:29;2.60;99.90
10089;DHT22;51898;49.864;8.550;2023-01-19T14:02:31;2.60;99.90
10089;DHT22;51898;49.864;8.550;2023-01-19T14:05:35;2.60;99.90
10089;DHT22;51898;49.864;8.550;2023-01-19T14:08:36;2.60;99.90
10089;DHT22;51898;49.864;8.550;2023-01-19T14:11:46;2.60;99.90
10089;DHT22;51898;49.864;8.550;2023-01-19T14:14:48;2.60;99.90
10089;DHT22;51898;49.864;8.550;2023-01-19T14:21:15;2.50;99.90
10089;DHT22;51898;49.864;8.550;2023-01-19T14:24:18;2.50;99.90
10089;DHT22;51898;49.864;8.550;2023-01-19T14:27:22;2.40;99.90
10089;DHT22;51898;49.864;8.550;2023-01-19T14:30:25;2.40;99.90
10089;DHT22;51898;49.864;8.550;2023-01-19T14:33:41;2.40;99.90
10089;DHT22;51898;49.864;8.550;2023-01-19T14:36:44;2.30;99.90
10089;DHT22;51898;49.864;8.550;2023-01-19T14:42:54;2.20;99.90
10089;DHT22;51898;49.864;8.550;2023-01-19T14:45:58;2.20;99.90
10089;DHT22;51898;49.864;8.550;2023-01-19T14:49:05;2.10;99.90
10089;DHT22;51898;49.864;8.550;2023-01-19T14:52:25;2.10;99.90
10089;DHT22;51898;49.864;8.550;2023-01-19T14:55:42;2.20;99.90
10089;DHT22;51898;49.864;8.550;2023-01-19T14:58:48;2.20;99.90
10089;DHT22;51898;49.864;8.550;2023-01-19T15:01:53;2.20;99.90
10089;DHT22;51898;49.864;8.550;2023-01-19T15:05:19;2.10;99.90
10089;DHT22;51898;49.864;8.550;2023-01-19T15:08:46;2.10;99.90
10089;DHT22;51898;49.864;8.550;2023-01-19T15:11:53;2.10;99.90
10089;DHT22;51898;49.864;8.550;2023-01-19T15:19:19;2.10;99.90
10089;DHT22;51898;49.864;8.550;2023-01-19T15:25:43;2.00;99.90
10089;DHT22;51898;49.864;8.550;2023-01-19T15:28:46;2.00;99.90
10089;DHT22;51898;49.864;8.550;2023-01-19T15:31:51;1.90;99.90
10089;DHT22;51898;49.864;8.550;2023-01-19T15:34:58;1.90;99.90
10089;DHT22;51898;49.864;8.550;2023-01-19T15:38:32;1.80;99.90
10089;DHT22;51898;49.864;8.550;2023-01-19T15:41:34;1.90;99.90
10089;DHT22;51898;49.864;8.550;2023-01-19T15:45:00;1.80;99.90
10089;DHT22;51898;49.864;8.550;2023-01-19T15:48:09;1.80;99.90
10089;DHT22;51898;49.864;8.550;2023-01-19T15:51:19;1.70;99.90
10089;DHT22;51898;49.864;8.550;2023-01-19T15:54:22;1.70;99.90
10089;DHT22;51898;49.864;8.550;2023-01-19T15:57:24;1.70;99.90
10089;DHT22;51898;49.864;8.550;2023-01-19T16:00:30;1.70;99.90
10089;DHT22;51898;49.864;8.550;2023-01-19T16:03:32;1.70;99.90
10089;DHT22;51898;49.864;8.550;2023-01-19T16:06:34;1.60;99.90
10089;DHT22;51898;49.864;8.550;2023-01-19T16:09:39;1.60;99.90
10089;DHT22;51898;49.864;8.550;2023-01-19T16:12:44;1.50;99.90
10089;DHT22;51898;49.864;8.550;2023-01-19T16:15:48;1.40;99.90
10089;DHT22;51898;49.864;8.550;2023-01-19T16:18:50;1.40;99.90
10089;DHT22;51898;49.864;8.550;2023-01-19T16:21:52;1.30;99.90
10089;DHT22;51898;49.864;8.550;2023-01-19T16:24:54;1.40;99.90
10089;DHT22;51898;49.864;8.550;2023-01-19T16:27:57;1.40;99.90
10089;DHT22;51898;49.864;8.550;2023-01-19T16:30:58;1.40;99.90
10089;DHT22;51898;49.864;8.550;2023-01-19T16:34:01;1.40;99.90
10089;DHT22;51898;49.864;8.550;2023-01-19T16:37:03;1.40;99.90
10089;DHT22;51898;49.864;8.550;2023-01-19T16:40:06;1.40;99.90
10089;DHT22;51898;49.864;8.550;2023-01-19T16:43:10;1.40;99.90
10089;DHT22;51898;49.864;8.550;2023-01-19T16:46:23;1.40;99.90
10089;DHT22;51898;49.864;8.550;2023-01-19T16:49:25;1.40;99.90
10089;DHT22;51898;49.864;8.550;2023-01-19T16:52:29;1.40;99.90
10089;DHT22;51898;49.864;8.550;2023-01-19T16:55:31;1.40;99.90
10089;DHT22;51898;49.864;8.550;2023-01-19T16:58:33;1.40;99.90
10089;DHT22;51898;49.864;8.550;2023-01-19T17:01:38;1.50;99.90
10089;DHT22;51898;49.864;8.550;2023-01-19T17:04:40;1.40;99.90
10089;DHT22;51898;49.864;8.550;2023-01-19T17:07:57;1.40;99.90
10089;DHT22;51898;49.864;8.550;2023-01-19T17:10:59;1.40;99.90
10089;DHT22;51898;49.864;8.550;2023-01-19T17:14:06;1.40;99.90
10089;DHT22;51898;49.864;8.550;2023-01-19T17:17:10;1.40;99.90
10089;DHT22;51898;49.864;8.550;2023-01-19T17:20:12;1.40;99.90
10089;DHT22;51898;49.864;8.550;2023-01-19T17:23:16;1.30;99.90
10089;DHT22;51898;49.864;8.550;2023-01-19T17:26:19;1.40;99.90
10089;DHT22;51898;49.864;8.550;2023-01-19T17:29:21;1.40;99.90
10089;DHT22;51898;49.864;8.550;2023-01-19T17:32:22;1.30;99.90
10089;DHT22;51898;49.864;8.550;2023-01-19T17:35:24;1.30;99.90
10089;DHT22;51898;49.864;8.550;2023-01-19T17:38:27;1.30;99.90
10089;DHT22;51898;49.864;8.550;2023-01-19T17:41:31;1.30;99.90
10089;DHT22;51898;49.864;8.550;2023-01-19T17:44:33;1.30;99.90
10089;DHT22;51898;49.864;8.550;2023-01-19T17:47:34;1.40;99.90
10089;DHT22;51898;49.864;8.550;2023-01-19T17:50:36;1.40;99.90
10089;DHT22;51898;49.864;8.550;2023-01-19T17:53:39;1.40;99.90
10089;DHT22;51898;49.864;8.550;2023-01-19T17:56:41;1.40;99.90
10089;DHT22;51898;49.864;8.550;2023-01-19T17:59:43;1.30;99.90
10089;DHT22;51898;49.864;8.550;2023-01-19T18:02:48;1.40;99.90
10089;DHT22;51898;49.864;8.550;2023-01-19T18:05:54;1.30;99.90
10089;DHT22;51898;49.864;8.550;2023-01-19T18:08:57;1.30;99.90
10089;DHT22;51898;49.864;8.550;2023-01-19T18:12:00;1.30;99.90
10089;DHT22;51898;49.864;8.550;2023-01-19T18:15:03;1.30;99.90
10089;DHT22;51898;49.864;8.550;2023-01-19T18:18:05;1.30;99.90
10089;DHT22;51898;49.864;8.550;2023-01-19T18:21:09;1.40;99.90
10089;DHT22;51898;49.864;8.550;2023-01-19T18:24:11;1.30;99.90
10089;DHT22;51898;49.864;8.550;2023-01-19T18:27:12;1.30;99.90
10089;DHT22;51898;49.864;8.550;2023-01-19T18:30:17;1.30;99.90
10089;DHT22;51898;49.864;8.550;2023-01-19T18:33:19;1.30;99.90
10089;DHT22;51898;49.864;8.550;2023-01-19T18:36:20;1.20;99.90
10089;DHT22;51898;49.864;8.550;2023-01-19T18:39:22;1.30;99.90
10089;DHT22;51898;49.864;8.550;2023-01-19T18:42:24;1.20;99.90
10089;DHT22;51898;49.864;8.550;2023-01-19T18:45:25;1.20;99.90
10089;DHT22;51898;49.864;8.550;2023-01-19T18:48:27;1.20;99.90
10089;DHT22;51898;49.864;8.550;2023-01-19T18:51:29;1.20;99.90
10089;DHT22;51898;49.864;8.550;2023-01-19T18:54:31;1.10;99.90
10089;DHT22;51898;49.864;8.550;2023-01-19T18:57:33;1.10;99.90
10089;DHT22;51898;49.864;8.550;2023-01-19T19:00:36;1.10;99.90
10089;DHT22;51898;49.864;8.550;2023-01-19T19:03:37;1.10;99.90
10089;DHT22;51898;49.864;8.550;2023-01-19T19:06:39;1.20;99.90
10089;DHT22;51898;49.864;8.550;2023-01-19T19:09:40;1.20;99.90
10089;DHT22;51898;49.864;8.550;2023-01-19T19:12:42;1.20;99.90
10089;DHT22;51898;49.864;8.550;2023-01-19T19:15:44;1.20;99.90
10089;DHT22;51898;49.864;8.550;2023-01-19T19:18:45;1.20;99.90
10089;DHT22;51898;49.864;8.550;2023-01-19T19:21:50;1.20;99.90
10089;DHT22;51898;49.864;8.550;2023-01-19T19:24:53;1.20;99.90
10089;DHT22;51898;49.864;8.550;2023-01-19T19:27:55;1.20;99.90
10089;DHT22;51898;49.864;8.550;2023-01-19T19:31:09;1.20;99.90
10089;DHT22;51898;49.864;8.550;2023-01-19T19:34:11;1.20;99.90
10089;DHT22;51898;49.864;8.550;2023-01-19T19:37:14;1.20;99.90
10089;DHT22;51898;49.864;8.550;2023-01-19T19:40:15;1.20;99.90
10089;DHT22;51898;49.864;8.550;2023-01-19T19:43:17;1.20;99.90
10089;DHT22;51898;49.864;8.550;2023-01-19T19:46:20;1.20;99.90
10089;DHT22;51898;49.864;8.550;2023-01-19T19:49:24;1.20;99.90
10089;DHT22;51898;49.864;8.550;2023-01-19T19:52:27;1.30;99.90
10089;DHT22;51898;49.864;8.550;2023-01-19T19:55:29;1.30;99.90
10089;DHT22;51898;49.864;8.550;2023-01-19T19:58:30;1.20;99.90
10089;DHT22;51898;49.864;8.550;2023-01-19T20:01:32;1.20;99.90
10089;DHT22;51898;49.864;8.550;2023-01-19T20:04:34;1.20;99.90
10089;DHT22;51898;49.864;8.550;2023-01-19T20:07:36;1.20;99.90
10089;DHT22;51898;49.864;8.550;2023-01-19T20:10:39;1.20;99.90
10089;DHT22;51898;49.864;8.550;2023-01-19T20:13:42;1.20;99.90
10089;DHT22;51898;49.864;8.550;2023-01-19T20:16:44;1.20;99.90
10089;DHT22;51898;49.864;8.550;2023-01-19T20:19:45;1.20;99.90
10089;DHT22;51898;49.864;8.550;2023-01-19T20:22:49;1.20;99.90